sensor_id;sensor_type;location;lat;lon;timestamp;temperature;humidity
75517;DHT22;64097;52.548;13.406;2023-08-06T06:02:25;22.50;64.10
75517;DHT22;64097;52.548;13.406;2023-08-06T06:04:51;22.50;64.10
75517;DHT22;64097;52.548;13.406;2023-08-06T06:07:16;22.50;64.10
75517;DHT22;64097;52.548;13.406;2023-08-06T06:09:42;22.50;64.20
75517;DHT22;64097;52.548;13.406;2023-08-06T06:12:08;22.50;64.10
75517;DHT22;64097;52.548;13.406;2023-08-06T06:14:33;22.50;64.00
75517;DHT22;64097;52.548;13.406;2023-08-06T06:16:59;22.50;64.10
75517;DHT22;64097;52.548;13.406;2023-08-06T06:19:26;22.50;64.10
75517;DHT22;64097;52.548;13.406;2023-08-06T06:21:52;22.50;65.10
75517;DHT22;64097;52.548;13.406;2023-08-06T06:24:18;22.50;64.10
75517;DHT22;64097;52.548;13.406;2023-08-06T06:26:44;22.50;64.00
75517;DHT22;64097;52.548;13.406;2023-08-06T06:29:09;22.50;63.90
75517;DHT22;64097;52.548;13.406;2023-08-06T06:31:35;22.60;64.10
75517;DHT22;64097;52.548;13.406;2023-08-06T06:34:01;22.60;64.20
75517;DHT22;64097;52.548;13.406;2023-08-06T06:36:26;22.60;64.20
75517;DHT22;64097;52.548;13.406;2023-08-06T06:38:52;22.60;64.30
75517;DHT22;64097;52.548;13.406;2023-08-06T06:41:18;22.60;64.40
75517;DHT22;64097;52.548;13.406;2023-08-06T06:43:44;22.60;64.50
75517;DHT22;64097;52.548;13.406;2023-08-06T06:46:09;22.60;64.40
75517;DHT22;64097;52.548;13.406;2023-08-06T06:48:35;22.70;64.40
75517;DHT22;64097;52.548;13.406;2023-08-06T06:51:01;22.60;64.40
75517;DHT22;64097;52.548;13.406;2023-08-06T06:53:26;22.70;64.50
75517;DHT22;64097;52.548;13.406;2023-08-06T06:55:56;22.70;64.50
75517;DHT22;64097;52.548;13.406;2023-08-06T06:58:22;22.70;64.50
75517;DHT22;64097;52.548;13.406;2023-08-06T07:00:48;22.70;64.30
75517;DHT22;64097;52.548;13.406;2023-08-06T07:03:16;22.70;64.30
75517;DHT22;64097;52.548;13.406;2023-08-06T07:05:43;22.70;64.10
75517;DHT22;64097;52.548;13.406;2023-08-06T07:08:08;22.70;64.00
75517;DHT22;64097;52.548;13.406;2023-08-06T07:10:34;22.80;64.10
75517;DHT22;64097;52.548;13.406;2023-08-06T07:13:00;22.70;63.90
75517;DHT22;64097;52.548;13.406;2023-08-06T07:15:26;22.80;63.80
75517;DHT22;64097;52.548;13.406;2023-08-06T07:17:51;22.80;63.70
75517;DHT22;64097;52.548;13.406;2023-08-06T07:20:17;22.80;63.80
75517;DHT22;64097;52.548;13.406;2023-08-06T07:22:44;22.80;63.80
75517;DHT22;64097;52.548;13.406;2023-08-06T07:25:09;22.80;63.90
75517;DHT22;64097;52.548;13.406;2023-08-06T07:27:35;22.90;64.00
75517;DHT22;64097;52.548;13.406;2023-08-06T07:30:01;22.80;63.90
75517;DHT22;64097;52.548;13.406;2023-08-06T07:32:26;22.90;63.80
75517;DHT22;64097;52.548;13.406;2023-08-06T07:34:53;22.90;63.90
75517;DHT22;64097;52.548;13.406;2023-08-06T07:37:22;22.90;63.90
75517;DHT22;64097;52.548;13.406;2023-08-06T07:39:48;22.90;63.80
75517;DHT22;64097;52.548;13.406;2023-08-06T07:42:14;22.90;63.90
75517;DHT22;64097;52.548;13.406;2023-08-06T07:44:40;22.90;64.00
75517;DHT22;64097;52.548;13.406;2023-08-06T07:47:05;22.90;64.10
75517;DHT22;64097;52.548;13.406;2023-08-06T07:49:31;22.90;64.20
75517;DHT22;64097;52.548;13.406;2023-08-06T07:51:57;22.90;64.10
75517;DHT22;64097;52.548;13.406;2023-08-06T07:54:22;22.90;64.30
75517;DHT22;64097;52.548;13.406;2023-08-06T07:56:50;22.90;64.40
75517;DHT22;64097;52.548;13.406;2023-08-06T07:59:15;22.90;64.30
75517;DHT22;64097;52.548;13.406;2023-08-06T08:01:41;22.90;64.40
75517;DHT22;64097;52.548;13.406;2023-08-06T08:04:07;22.90;64.40
75517;DHT22;64097;52.548;13.406;2023-08-06T08:06:33;22.90;64.40
75517;DHT22;64097;52.548;13.406;2023-08-06T08:08:59;22.90;64.40
75517;DHT22;64097;52.548;13.406;2023-08-06T08:11:26;22.90;64.50
75517;DHT22;64097;52.548;13.406;2023-08-06T08:13:51;22.90;64.50
75517;DHT22;64097;52.548;13.406;2023-08-06T08:16:17;22.90;64.70
75517;DHT22;64097;52.548;13.406;2023-08-06T08:18:43;22.90;64.70
75517;DHT22;64097;52.548;13.406;2023-08-06T08:21:08;22.90;64.90
75517;DHT22;64097;52.548;13.406;2023-08-06T08:23:34;22.90;64.90
75517;DHT22;64097;52.548;13.406;2023-08-06T08:26:00;22.90;64.90
75517;DHT22;64097;52.548;13.406;2023-08-06T08:28:27;22.90;65.00
75517;DHT22;64097;52.548;13.406;2023-08-06T08:30:53;22.90;65.00
75517;DHT22;64097;52.548;13.406;2023-08-06T08:33:18;22.90;64.90
75517;DHT22;64097;52.548;13.406;2023-08-06T08:35:45;22.90;64.80
75517;DHT22;64097;52.548;13.406;2023-08-06T08:38:11;22.90;64.90
75517;DHT22;64097;52.548;13.406;2023-08-06T08:40:44;23.00;65.00
75517;DHT22;64097;52.548;13.406;2023-08-06T08:43:10;23.00;64.90
75517;DHT22;64097;52.548;13.406;2023-08-06T08:45:40;23.10;64.80
75517;DHT22;64097;52.548;13.406;2023-08-06T08:48:09;23.10;64.40
75517;DHT22;64097;52.548;13.406;2023-08-06T08:50:36;23.10;64.40
75517;DHT22;64097;52.548;13.406;2023-08-06T08:53:02;23.10;64.60
75517;DHT22;64097;52.548;13.406;2023-08-06T08:55:28;23.10;64.60
75517;DHT22;64097;52.548;13.406;2023-08-06T08:57:54;23.10;64.70
75517;DHT22;64097;52.548;13.406;2023-08-06T09:00:20;23.10;64.60
75517;DHT22;64097;52.548;13.406;2023-08-06T09:02:46;23.10;64.60
75517;DHT22;64097;52.548;13.406;2023-08-06T09:05:13;23.20;64.60
75517;DHT22;64097;52.548;13.406;2023-08-06T09:07:42;23.20;64.60
75517;DHT22;64097;52.548;13.406;2023-08-06T09:10:11;23.20;64.70
75517;DHT22;64097;52.548;13.406;2023-08-06T09:12:39;23.20;64.70
75517;DHT22;64097;52.548;13.406;2023-08-06T09:15:05;23.20;64.80
75517;DHT22;64097;52.548;13.406;2023-08-06T09:17:31;23.20;64.70
75517;DHT22;64097;52.548;13.406;2023-08-06T09:19:57;23.20;64.70
75517;DHT22;64097;52.548;13.406;2023-08-06T09:22:23;23.20;64.70
75517;DHT22;64097;52.548;13.406;2023-08-06T09:24:49;23.20;64.60
75517;DHT22;64097;52.548;13.406;2023-08-06T09:27:15;23.20;64.70
75517;DHT22;64097;52.548;13.406;2023-08-06T09:29:45;23.20;64.90
75517;DHT22;64097;52.548;13.406;2023-08-06T09:32:14;23.20;64.90
75517;DHT22;64097;52.548;13.406;2023-08-06T09:34:41;23.20;64.80
75517;DHT22;64097;52.548;13.406;2023-08-06T09:37:09;23.20;64.80
75517;DHT22;64097;52.548;13.406;2023-08-06T09:39:35;23.20;64.70
75517;DHT22;64097;52.548;13.406;2023-08-06T09:42:01;23.20;64.80
75517;DHT22;64097;52.548;13.406;2023-08-06T09:44:29;23.20;64.80
75517;DHT22;64097;52.548;13.406;2023-08-06T09:46:56;23.20;64.80
75517;DHT22;64097;52.548;13.406;2023-08-06T09:49:26;23.20;64.80
75517;DHT22;64097;52.548;13.406;2023-08-06T09:51:52;23.20;64.70
75517;DHT22;64097;52.548;13.406;2023-08-06T09:54:22;23.30;64.80
75517;DHT22;64097;52.548;13.406;2023-08-06T09:56:48;23.30;64.70
75517;DHT22;64097;52.548;13.406;2023-08-06T09:59:14;23.30;64.70
75517;DHT22;64097;52.548;13.406;2023-08-06T10:01:41;23.30;64.60
75517;DHT22;64097;52.548;13.406;2023-08-06T10:04:07;23.30;64.70
75517;DHT22;64097;52.548;13.406;2023-08-06T10:06:34;23.30;64.80
75517;DHT22;64097;52.548;13.406;2023-08-06T10:09:05;23.30;64.70
75517;DHT22;64097;52.548;13.406;2023-08-06T10:11:31;23.20;64.20
75517;DHT22;64097;52.548;13.406;2023-08-06T10:14:02;23.30;63.90
75517;DHT22;64097;52.548;13.406;2023-08-06T10:16:30;23.30;63.00
75517;DHT22;64097;52.548;13.406;2023-08-06T10:18:56;23.30;62.10
75517;DHT22;64097;52.548;13.406;2023-08-06T10:21:24;23.30;61.70
75517;DHT22;64097;52.548;13.406;2023-08-06T10:23:58;23.30;61.60
75517;DHT22;64097;52.548;13.406;2023-08-06T10:26:27;23.30;61.40
75517;DHT22;64097;52.548;13.406;2023-08-06T10:28:54;23.30;61.30
75517;DHT22;64097;52.548;13.406;2023-08-06T10:31:20;23.30;61.30
75517;DHT22;64097;52.548;13.406;2023-08-06T10:33:59;23.30;61.20
75517;DHT22;64097;52.548;13.406;2023-08-06T10:36:26;23.30;60.80
75517;DHT22;64097;52.548;13.406;2023-08-06T10:38:52;23.30;60.50
75517;DHT22;64097;52.548;13.406;2023-08-06T10:41:27;23.30;60.30
75517;DHT22;64097;52.548;13.406;2023-08-06T10:44:07;23.30;60.10
75517;DHT22;64097;52.548;13.406;2023-08-06T10:46:33;23.30;60.20
75517;DHT22;64097;52.548;13.406;2023-08-06T10:49:00;23.40;60.10
75517;DHT22;64097;52.548;13.406;2023-08-06T10:51:26;23.40;60.00
75517;DHT22;64097;52.548;13.406;2023-08-06T10:53:53;23.40;60.10
75517;DHT22;64097;52.548;13.406;2023-08-06T10:56:24;23.40;59.70
75517;DHT22;64097;52.548;13.406;2023-08-06T10:58:53;23.40;59.50
75517;DHT22;64097;52.548;13.406;2023-08-06T11:01:19;23.40;59.60
75517;DHT22;64097;52.548;13.406;2023-08-06T11:03:46;23.40;59.70
75517;DHT22;64097;52.548;13.406;2023-08-06T11:06:22;23.40;60.00
75517;DHT22;64097;52.548;13.406;2023-08-06T11:08:53;23.40;60.20
75517;DHT22;64097;52.548;13.406;2023-08-06T11:11:20;23.40;60.40
75517;DHT22;64097;52.548;13.406;2023-08-06T11:13:48;23.40;60.40
75517;DHT22;64097;52.548;13.406;2023-08-06T11:16:19;23.40;60.60
75517;DHT22;64097;52.548;13.406;2023-08-06T11:18:46;23.40;60.80
75517;DHT22;64097;52.548;13.406;2023-08-06T11:21:13;23.40;61.20
75517;DHT22;64097;52.548;13.406;2023-08-06T11:23:39;23.40;61.00
75517;DHT22;64097;52.548;13.406;2023-08-06T11:26:06;23.40;61.00
75517;DHT22;64097;52.548;13.406;2023-08-06T11:28:31;23.40;61.80
75517;DHT22;64097;52.548;13.406;2023-08-06T11:30:58;23.40;61.00
75517;DHT22;64097;52.548;13.406;2023-08-06T11:33:27;23.40;61.30
75517;DHT22;64097;52.548;13.406;2023-08-06T11:35:58;23.50;61.40
75517;DHT22;64097;52.548;13.406;2023-08-06T11:38:28;23.50;61.30
75517;DHT22;64097;52.548;13.406;2023-08-06T11:40:54;23.50;61.30
75517;DHT22;64097;52.548;13.406;2023-08-06T11:43:21;23.50;61.10
75517;DHT22;64097;52.548;13.406;2023-08-06T11:45:48;23.50;61.20
75517;DHT22;64097;52.548;13.406;2023-08-06T11:48:15;23.50;61.30
75517;DHT22;64097;52.548;13.406;2023-08-06T11:50:40;23.50;61.60
75517;DHT22;64097;52.548;13.406;2023-08-06T11:53:06;23.50;61.80
75517;DHT22;64097;52.548;13.406;2023-08-06T11:55:32;23.50;61.80
75517;DHT22;64097;52.548;13.406;2023-08-06T11:57:59;23.50;61.80
75517;DHT22;64097;52.548;13.406;2023-08-06T12:00:29;23.60;61.80
75517;DHT22;64097;52.548;13.406;2023-08-06T12:02:54;23.50;62.00
75517;DHT22;64097;52.548;13.406;2023-08-06T12:05:22;23.50;62.10
75517;DHT22;64097;52.548;13.406;2023-08-06T12:07:54;23.50;62.40
75517;DHT22;64097;52.548;13.406;2023-08-06T12:10:21;23.50;62.60
75517;DHT22;64097;52.548;13.406;2023-08-06T12:12:47;23.50;62.80
75517;DHT22;64097;52.548;13.406;2023-08-06T12:15:14;23.50;62.90
75517;DHT22;64097;52.548;13.406;2023-08-06T12:17:40;23.50;63.10
75517;DHT22;64097;52.548;13.406;2023-08-06T12:20:06;23.50;63.30
75517;DHT22;64097;52.548;13.406;2023-08-06T12:22:33;23.60;63.40
75517;DHT22;64097;52.548;13.406;2023-08-06T12:25:10;23.60;64.20
75517;DHT22;64097;52.548;13.406;2023-08-06T12:27:46;23.60;63.10
75517;DHT22;64097;52.548;13.406;2023-08-06T12:30:13;23.60;63.10
75517;DHT22;64097;52.548;13.406;2023-08-06T12:32:39;23.60;62.90
75517;DHT22;64097;52.548;13.406;2023-08-06T12:35:05;23.60;62.90
75517;DHT22;64097;52.548;13.406;2023-08-06T12:37:33;23.70;62.80
75517;DHT22;64097;52.548;13.406;2023-08-06T12:39:58;23.70;62.80
75517;DHT22;64097;52.548;13.406;2023-08-06T12:42:24;23.70;62.90
75517;DHT22;64097;52.548;13.406;2023-08-06T12:44:50;23.70;62.80
75517;DHT22;64097;52.548;13.406;2023-08-06T12:47:17;23.70;62.80
75517;DHT22;64097;52.548;13.406;2023-08-06T12:49:42;23.70;62.80
75517;DHT22;64097;52.548;13.406;2023-08-06T12:52:08;23.70;62.70
75517;DHT22;64097;52.548;13.406;2023-08-06T12:54:35;23.70;62.60
75517;DHT22;64097;52.548;13.406;2023-08-06T12:57:04;23.70;62.70
75517;DHT22;64097;52.548;13.406;2023-08-06T12:59:30;23.70;62.60
75517;DHT22;64097;52.548;13.406;2023-08-06T13:01:56;23.70;62.40
75517;DHT22;64097;52.548;13.406;2023-08-06T13:04:22;23.70;62.40
75517;DHT22;64097;52.548;13.406;2023-08-06T13:06:47;23.60;62.30
75517;DHT22;64097;52.548;13.406;2023-08-06T13:09:13;23.70;62.30
75517;DHT22;64097;52.548;13.406;2023-08-06T13:11:40;23.70;62.60
75517;DHT22;64097;52.548;13.406;2023-08-06T13:14:07;23.60;63.40
75517;DHT22;64097;52.548;13.406;2023-08-06T13:16:35;23.60;62.40
75517;DHT22;64097;52.548;13.406;2023-08-06T13:19:00;23.60;62.60
75517;DHT22;64097;52.548;13.406;2023-08-06T13:24:17;23.60;62.70
75517;DHT22;64097;52.548;13.406;2023-08-06T13:26:43;23.60;62.00
75517;DHT22;64097;52.548;13.406;2023-08-06T13:29:09;23.50;61.90
75517;DHT22;64097;52.548;13.406;2023-08-06T13:31:36;23.50;62.20
75517;DHT22;64097;52.548;13.406;2023-08-06T13:34:02;23.50;62.30
75517;DHT22;64097;52.548;13.406;2023-08-06T13:36:28;23.40;62.40
75517;DHT22;64097;52.548;13.406;2023-08-06T13:38:54;23.50;62.60
75517;DHT22;64097;52.548;13.406;2023-08-06T13:41:20;23.40;62.70
75517;DHT22;64097;52.548;13.406;2023-08-06T13:43:46;23.40;62.80
75517;DHT22;64097;52.548;13.406;2023-08-06T13:46:12;23.40;62.80
75517;DHT22;64097;52.548;13.406;2023-08-06T13:48:44;23.40;62.90
75517;DHT22;64097;52.548;13.406;2023-08-06T13:51:11;23.50;63.10
75517;DHT22;64097;52.548;13.406;2023-08-06T13:53:40;23.40;63.20
75517;DHT22;64097;52.548;13.406;2023-08-06T13:56:07;23.40;63.20
75517;DHT22;64097;52.548;13.406;2023-08-06T13:58:33;23.50;62.80
